map of KAC home
Great Circle Mapper logo
KAC - Airport
Location
City:  Kameshli, Syrian Arab Republic (Syria)
Near (Alt.):Kamishly
ICAO / IATA:OSKL / KAC

Details
Type:Airport (Aerodrome, Airfield)
Latitude:3701'14"N (37.020625)
Longitude:4111'29"E (41.191394)
Datum:WGS 1984
Elevation:1480 ft (451 m)
Runways:1
Longest:11860 × 150 ft (3615 × 45.5 m), paved

Time
Time Zone:UTC+1 (DST+2)

Weather
METAR:OSKL 311400Z 10006KT 9999 SCT026 BKN100 18/11 Q1011

Related Locations
Nearby:
Farthest:GMR: 11443 mi / 18415 km
Mangareva [Totegegie], Gambier Islands, PF

Find:

   beyond  
but within

Other Information
Maps:
NOTAMs:
Links:
Sources:

  
flag of Syrian Arab Republic (Syria)   

Sectional Chart

Flight Planning
at skyvector.com

Satellite Image

Google Maps Satellite View

 

Copyright © 2004-2014 Karl L. Swartz. All rights reserved.
The Great Circle Mapper name and logo are trademarks of the Great Circle Mapper.
All other trademarks mentioned herein belong to their respective owners.
Please see credits for attibutions and further copyright information.

  Follow gcmap on Facebook Follow gcmap on Twitter

hCard Microformat

Geo Microformat